Etusivu
METAR-TAF:

METAR-TAF

Lentoasemat :

Bathurst, New Brunswick, Kanada

Leveyspiiri: 47-38N, Pituuspiiri: 065-45W, korkeus merenpinnasta: 59 m

Tämänhetkinen sää

Tämä raportti tehtiin 47 minuuttia sitten, kello 05.00 UTC
Tuuli 2 kn idästä/kaakosta
Lämpötila 5°C
Kosteus 81%
Ilmanpaine 1017 hPa
Näkyvyys: 14.5 km
selkeää

METAR: CZBF 250500Z AUTO 11002KT 9SM CLR 05/02 A3002 RMK SLP169

Aika: 02:47 (05:47 UTC)

Sääennuste

Tämä raportti tehtiin 10 tuntia ja 9 minuuttia sitten, kello 19.38 UTC
Ennuste voimassa 24. päivästä klo 20 UTC - 25. päivään klo 03 UTC
Tuuli 8 kn pohjoisesta/koillisesta
Näkyvyys: 10 km
Muutamia pilviä 6000 ft:n korkeudessa
Hajanaisia pilviä 20000 ft:n korkeudessa
Tulossa
24. päivästä klo 22 UTC - 24. päivään klo 24 UTC
Tuuli 3 kn eri suunnista

TAF: CZBF 241938Z 2420/2503 03008KT P6SM FEW060 SCT200 BECMG 2422/2424 VRB03KT RMK FCST BASED ON AUTO OBS. NXT FCST WILL BE ISSUED AT 250845Z

Säähavainnot ja -ennusteet yli 4000 lentoasemalta (METAR- ja TAF-raportit).

Käytössä olevat sääasemat on merkitty karttaan keltaisilla ja punaisilla pisteillä.

Aseta hiiri pisteen päälle nähdäksesi sääaseman nimen.

Klikkaa sitten nähdäksesi säähavainnot ja -ennusteet.

Kartan vaihtaminen: klikkaa mustalla rastilla varustettuja vihreitä pisteitä, niin voit zoomata sisään; viivalla varustettua vihreää pistettä, niin voit zoomata ulos tai vihreitä nuolia, niin pääset viereisille kartoille.


METAR-TAF: